createdAt,value
2023-04-15T00:00:03.975Z,9.52
2023-04-15T00:03:03.703Z,9.53
2023-04-15T00:05:52.969Z,9.41
2023-04-15T00:08:43.679Z,9.35
2023-04-15T00:11:33.062Z,9.38
2023-04-15T00:14:22.345Z,9.35
2023-04-15T00:17:11.706Z,9.35
2023-04-15T00:20:02.588Z,9.34
2023-04-15T00:22:51.782Z,9.32
2023-04-15T00:25:41.863Z,9.27
2023-04-15T00:28:31.127Z,9.28
2023-04-15T00:31:20.937Z,9.23
2023-04-15T00:34:10.831Z,9.13
2023-04-15T00:37:01.803Z,9.21
2023-04-15T00:39:51.325Z,9.20
2023-04-15T00:42:41.202Z,9.16
2023-04-15T00:45:30.685Z,9.22
2023-04-15T00:48:20.182Z,9.19
2023-04-15T00:51:09.764Z,9.14
2023-04-15T00:54:01.041Z,9.07
2023-04-15T00:56:50.748Z,9.02
2023-04-15T00:59:40.222Z,9.02
2023-04-15T01:02:29.729Z,8.98
2023-04-15T01:05:19.716Z,8.81
2023-04-15T01:08:09.844Z,8.81
2023-04-15T01:11:03.870Z,8.91
2023-04-15T01:13:54.393Z,8.91
2023-04-15T01:16:45.370Z,8.86
2023-04-15T01:19:34.670Z,8.82
2023-04-15T01:22:26.768Z,8.78
2023-04-15T01:25:21.816Z,8.86
2023-04-15T01:28:12.506Z,8.88
2023-04-15T01:31:12.645Z,8.84
2023-04-15T01:34:02.954Z,8.84
2023-04-15T01:37:10.903Z,8.82
2023-04-15T01:40:00.180Z,8.76
2023-04-15T01:42:49.588Z,8.72
2023-04-15T01:45:40.232Z,8.75
2023-04-15T01:48:29.494Z,8.69
2023-04-15T01:51:19.157Z,8.59
2023-04-15T01:54:08.455Z,8.62
2023-04-15T01:56:57.966Z,8.54
2023-04-15T01:59:47.397Z,8.53
2023-04-15T02:02:39.136Z,8.53
2023-04-15T02:05:28.497Z,8.47
2023-04-15T02:08:17.854Z,8.43
2023-04-15T02:11:07.203Z,8.43
2023-04-15T02:13:57.030Z,8.32
2023-04-15T02:16:48.186Z,8.24
2023-04-15T02:19:40.631Z,8.27
2023-04-15T02:22:30.403Z,8.39
2023-04-15T02:25:20.369Z,8.37
2023-04-15T02:28:09.657Z,8.38
2023-04-15T02:30:59.929Z,8.33
2023-04-15T02:33:49.125Z,8.37
2023-04-15T02:36:40.810Z,8.33
2023-04-15T02:39:29.996Z,8.31
2023-04-15T02:42:19.276Z,8.29
2023-04-15T02:45:12.214Z,8.25
2023-04-15T02:48:06.307Z,8.27
2023-04-15T02:50:55.878Z,8.23
2023-04-15T02:53:46.590Z,8.20
2023-04-15T02:56:35.972Z,8.20
2023-04-15T02:59:25.185Z,8.14
2023-04-15T03:02:14.499Z,8.19
2023-04-15T03:05:04.247Z,8.14
2023-04-15T03:07:53.576Z,8.19
2023-04-15T03:10:44.772Z,8.15
2023-04-15T03:13:34.030Z,8.18
2023-04-15T03:16:31.042Z,8.16
2023-04-15T03:19:21.097Z,8.10
2023-04-15T03:22:10.461Z,8.12
2023-04-15T03:24:59.886Z,8.08
2023-04-15T03:27:51.199Z,8.07
2023-04-15T03:30:40.421Z,7.99
2023-04-15T03:33:29.617Z,8.03
2023-04-15T03:36:18.943Z,7.95
2023-04-15T03:39:08.343Z,7.95
2023-04-15T03:41:57.936Z,7.98
2023-04-15T03:44:48.570Z,7.94
2023-04-15T03:47:37.940Z,7.94
2023-04-15T03:50:27.870Z,7.94
2023-04-15T03:53:17.253Z,7.86
2023-04-15T03:56:07.220Z,7.91
2023-04-15T03:58:56.410Z,7.91
2023-04-15T04:01:47.302Z,7.88
2023-04-15T04:04:36.641Z,7.91
2023-04-15T04:07:26.222Z,7.84
2023-04-15T04:10:15.403Z,7.84
2023-04-15T04:13:04.840Z,7.86
2023-04-15T04:15:54.006Z,7.85
2023-04-15T04:18:44.663Z,7.84
2023-04-15T04:21:34.320Z,7.80
2023-04-15T04:24:23.798Z,7.75
2023-04-15T04:27:12.969Z,7.82
2023-04-15T04:30:02.267Z,7.81
2023-04-15T04:32:51.947Z,7.75
2023-04-15T04:35:42.708Z,7.78
2023-04-15T04:38:31.913Z,7.78
2023-04-15T04:41:21.500Z,7.72
2023-04-15T04:44:10.722Z,7.69
2023-04-15T04:46:59.922Z,7.65
2023-04-15T04:49:49.064Z,7.64
2023-04-15T04:52:40.761Z,7.59
2023-04-15T04:55:30.286Z,7.54
2023-04-15T04:58:19.537Z,7.51
2023-04-15T05:01:09.210Z,7.52
2023-04-15T05:03:58.530Z,7.52
2023-04-15T05:06:47.820Z,7.51
2023-04-15T05:09:38.644Z,7.49
2023-04-15T05:12:27.937Z,7.44
2023-04-15T05:15:17.127Z,7.44
2023-04-15T05:18:06.673Z,7.44
2023-04-15T05:20:55.945Z,7.38
2023-04-15T05:23:45.595Z,7.39
2023-04-15T05:26:36.218Z,7.31
2023-04-15T05:29:25.505Z,7.33
2023-04-15T05:32:14.698Z,7.28
2023-04-15T05:35:03.853Z,7.27
2023-04-15T05:37:53.033Z,7.19
2023-04-15T05:40:42.207Z,7.26
2023-04-15T05:43:32.950Z,7.25
2023-04-15T05:46:22.734Z,7.24
2023-04-15T05:49:12.142Z,7.24
2023-04-15T05:52:01.451Z,7.14
2023-04-15T05:54:50.749Z,7.23
2023-04-15T05:57:40.171Z,7.27
2023-04-15T06:00:31.332Z,7.29
2023-04-15T06:03:20.629Z,7.31
2023-04-15T06:06:10.026Z,7.22
2023-04-15T06:08:59.291Z,7.31
2023-04-15T06:11:48.608Z,7.33
2023-04-15T06:14:37.774Z,7.39
2023-04-15T06:17:28.517Z,7.42
2023-04-15T06:20:17.964Z,7.45
2023-04-15T06:23:07.341Z,7.45
2023-04-15T06:25:56.498Z,7.50
2023-04-15T06:28:45.949Z,7.57
2023-04-15T06:31:35.246Z,7.58
2023-04-15T06:34:25.931Z,7.64
2023-04-15T06:37:16.457Z,7.68
2023-04-15T06:40:07.214Z,7.72
2023-04-15T06:42:57.044Z,7.85
2023-04-15T06:45:46.563Z,7.83
2023-04-15T06:48:35.901Z,7.95
2023-04-15T06:51:27.185Z,8.06
2023-04-15T06:54:16.461Z,8.14
2023-04-15T06:57:05.752Z,8.21
2023-04-15T06:59:55.036Z,8.33
2023-04-15T07:02:44.374Z,8.41
2023-04-15T07:05:33.626Z,8.58
2023-04-15T07:08:25.700Z,8.81
2023-04-15T07:11:15.201Z,9.17
2023-04-15T07:14:04.913Z,9.62
2023-04-15T07:16:54.211Z,10.02
2023-04-15T07:19:45.606Z,10.55
2023-04-15T07:22:35.299Z,11.06
2023-04-15T07:25:26.550Z,11.39
2023-04-15T07:28:15.755Z,11.72
2023-04-15T07:31:05.400Z,12.02
2023-04-15T07:33:54.701Z,12.38
2023-04-15T07:36:44.302Z,12.65
2023-04-15T07:39:33.611Z,12.93
2023-04-15T07:42:24.480Z,13.15
2023-04-15T07:45:14.015Z,13.35
2023-04-15T07:48:03.482Z,13.78
2023-04-15T07:50:52.935Z,14.20
2023-04-15T07:53:42.453Z,14.64
2023-04-15T07:56:32.803Z,14.97
2023-04-15T07:59:23.462Z,15.02
2023-04-15T08:02:13.972Z,15.15
2023-04-15T08:05:05.951Z,15.25
2023-04-15T08:07:55.355Z,15.49
2023-04-15T08:10:44.894Z,15.62
2023-04-15T08:13:34.475Z,15.93
2023-04-15T08:16:28.091Z,15.96
2023-04-15T08:19:17.394Z,16.15
2023-04-15T08:22:06.711Z,16.20
2023-04-15T08:25:05.783Z,16.55
2023-04-15T08:27:58.123Z,16.86
2023-04-15T08:30:47.498Z,17.20
2023-04-15T08:33:38.283Z,17.58
2023-04-15T08:36:28.568Z,18.04
2023-04-15T08:39:17.836Z,18.44
2023-04-15T08:42:13.347Z,18.72
2023-04-15T08:45:05.294Z,18.91
2023-04-15T08:47:58.704Z,19.27
2023-04-15T08:50:50.195Z,19.51
2023-04-15T08:53:39.940Z,19.68
2023-04-15T08:56:32.723Z,19.56
2023-04-15T08:59:22.656Z,19.45
2023-04-15T09:02:13.280Z,19.90
2023-04-15T09:05:05.177Z,19.88
2023-04-15T09:07:55.881Z,20.04
2023-04-15T09:10:45.220Z,19.84
2023-04-15T09:13:34.535Z,19.90
2023-04-15T09:16:24.128Z,20.04
2023-04-15T09:19:24.360Z,20.07
2023-04-15T09:22:13.896Z,20.22
2023-04-15T09:25:05.105Z,20.23
2023-04-15T09:27:56.409Z,20.41
2023-04-15T09:30:49.151Z,20.72
2023-04-15T09:33:57.670Z,20.93
2023-04-15T09:36:58.038Z,21.26
2023-04-15T09:39:50.249Z,21.44
2023-04-15T09:42:56.966Z,21.72
2023-04-15T09:45:51.137Z,21.94
2023-04-15T09:48:40.478Z,22.18
2023-04-15T09:51:36.732Z,22.42
2023-04-15T09:54:26.081Z,22.71
2023-04-15T09:57:15.879Z,22.98
2023-04-15T10:00:08.933Z,23.08
2023-04-15T10:02:58.754Z,23.26
2023-04-15T10:05:51.200Z,23.33
2023-04-15T10:08:41.833Z,23.48
2023-04-15T10:11:31.993Z,23.65
2023-04-15T10:14:22.111Z,24.07
2023-04-15T10:17:13.764Z,24.02
2023-04-15T10:20:03.963Z,23.94
2023-04-15T10:22:54.396Z,24.00
2023-04-15T10:25:44.329Z,24.20
2023-04-15T10:28:33.721Z,24.18
2023-04-15T10:31:24.215Z,24.47
2023-04-15T10:34:16.158Z,24.60
2023-04-15T10:37:06.823Z,24.75
2023-04-15T10:39:56.030Z,24.84
2023-04-15T10:42:45.356Z,24.86
2023-04-15T10:45:37.870Z,24.68
2023-04-15T10:48:27.223Z,24.33
2023-04-15T10:51:18.591Z,24.29
2023-04-15T10:54:15.206Z,24.24
2023-04-15T10:57:24.435Z,23.97
2023-04-15T11:00:15.976Z,23.75
2023-04-15T11:03:09.680Z,23.53
2023-04-15T11:05:59.147Z,23.21
2023-04-15T11:09:09.704Z,23.20
2023-04-15T11:12:09.821Z,23.29
2023-04-15T11:15:01.754Z,23.34
2023-04-15T11:17:51.083Z,23.17
2023-04-15T11:20:45.087Z,22.95
2023-04-15T11:23:44.331Z,22.88
2023-04-15T11:26:35.404Z,22.74
2023-04-15T11:29:29.889Z,22.63
2023-04-15T11:32:19.176Z,22.73
2023-04-15T11:35:09.359Z,22.83
2023-04-15T11:37:59.083Z,22.87
2023-04-15T11:40:48.669Z,22.75
2023-04-15T11:43:39.476Z,22.46
2023-04-15T11:46:32.172Z,22.03
2023-04-15T11:49:33.996Z,21.71
2023-04-15T11:52:26.012Z,21.72
2023-04-15T11:55:15.591Z,21.59
2023-04-15T11:58:10.595Z,21.86
2023-04-15T12:01:03.049Z,21.79
2023-04-15T12:03:52.469Z,21.75
2023-04-15T12:06:42.229Z,21.84
2023-04-15T12:09:32.428Z,21.38
2023-04-15T12:12:22.072Z,21.39
2023-04-15T12:15:12.032Z,21.42
2023-04-15T12:18:02.763Z,21.10
2023-04-15T12:20:55.246Z,20.80
2023-04-15T12:23:50.882Z,20.33
2023-04-15T12:26:45.857Z,20.17
2023-04-15T12:29:37.296Z,20.22
2023-04-15T12:32:26.616Z,20.30
2023-04-15T12:35:19.410Z,20.33
2023-04-15T12:38:10.928Z,20.22
2023-04-15T12:41:00.402Z,20.09
2023-04-15T12:43:49.708Z,20.14
2023-04-15T12:46:39.893Z,20.26
2023-04-15T12:49:29.397Z,20.31
2023-04-15T12:52:20.099Z,20.19
2023-04-15T12:55:10.302Z,20.06
2023-04-15T12:57:59.646Z,19.86
2023-04-15T13:00:49.070Z,19.63
2023-04-15T13:03:41.304Z,19.58
2023-04-15T13:06:32.789Z,19.47
2023-04-15T13:09:26.610Z,19.23
2023-04-15T13:12:16.506Z,19.17
2023-04-15T13:15:06.806Z,19.23
2023-04-15T13:17:56.141Z,19.26
2023-04-15T13:20:45.577Z,19.26
2023-04-15T13:23:34.955Z,19.29
2023-04-15T13:26:25.766Z,19.37
2023-04-15T13:29:15.055Z,19.53
2023-04-15T13:32:04.591Z,19.69
2023-04-15T13:34:54.893Z,19.77
2023-04-15T13:37:44.163Z,19.83
2023-04-15T13:40:33.472Z,19.88
2023-04-15T13:43:24.166Z,19.97
2023-04-15T13:46:13.837Z,19.96
2023-04-15T13:49:03.332Z,20.08
2023-04-15T13:51:53.092Z,20.24
2023-04-15T13:54:42.481Z,20.35
2023-04-15T13:57:32.603Z,20.44
2023-04-15T14:00:23.623Z,20.58
2023-04-15T14:03:12.984Z,20.70
2023-04-15T14:06:02.480Z,20.80
2023-04-15T14:08:51.854Z,20.82
2023-04-15T14:11:41.274Z,20.90
2023-04-15T14:14:30.642Z,20.83
2023-04-15T14:17:21.478Z,20.71
2023-04-15T14:20:11.838Z,20.60
2023-04-15T14:23:01.108Z,20.51
2023-04-15T14:25:51.956Z,20.37
2023-04-15T14:28:41.314Z,20.23
2023-04-15T14:31:33.746Z,19.84
2023-04-15T14:34:25.571Z,19.73
2023-04-15T14:37:14.844Z,19.82
2023-04-15T14:40:04.258Z,19.74
2023-04-15T14:42:53.509Z,19.54
2023-04-15T14:45:44.603Z,19.40
2023-04-15T14:48:34.862Z,19.02
2023-04-15T14:51:26.628Z,18.83
2023-04-15T14:54:15.863Z,18.69
2023-04-15T14:57:05.429Z,18.35
2023-04-15T14:59:56.770Z,18.55
2023-04-15T15:02:47.642Z,18.45
2023-04-15T15:05:37.279Z,18.45
2023-04-15T15:08:28.167Z,18.38
2023-04-15T15:11:17.929Z,18.18
2023-04-15T15:14:07.316Z,18.01
2023-04-15T15:16:56.633Z,18.00
2023-04-15T15:19:46.453Z,17.89
2023-04-15T15:22:35.723Z,17.94
2023-04-15T15:25:26.614Z,17.98
2023-04-15T15:28:15.949Z,17.91
2023-04-15T15:31:06.117Z,17.83
2023-04-15T15:33:55.523Z,17.76
2023-04-15T15:36:44.800Z,17.62
2023-04-15T15:39:33.995Z,17.54
2023-04-15T15:42:24.967Z,17.36
2023-04-15T15:45:14.340Z,17.24
2023-04-15T15:48:04.050Z,17.17
2023-04-15T15:50:54.328Z,17.10
2023-04-15T15:53:44.799Z,17.03
2023-04-15T15:56:35.145Z,17.00
2023-04-15T15:59:26.114Z,16.92
2023-04-15T16:02:15.769Z,17.04
2023-04-15T16:05:05.688Z,17.01
2023-04-15T16:07:54.943Z,17.00
2023-04-15T16:10:45.839Z,16.87
2023-04-15T16:13:35.082Z,16.96
2023-04-15T16:16:25.713Z,16.95
2023-04-15T16:19:15.350Z,16.90
2023-04-15T16:22:04.701Z,16.78
2023-04-15T16:24:54.549Z,16.66
2023-04-15T16:27:58.908Z,16.49
2023-04-15T16:30:52.592Z,16.49
2023-04-15T16:33:43.415Z,16.49
2023-04-15T16:36:32.881Z,16.36
2023-04-15T16:39:24.039Z,16.43
2023-04-15T16:42:13.637Z,16.53
2023-04-15T16:45:02.925Z,16.54
2023-04-15T16:47:52.402Z,16.51
2023-04-15T16:50:43.028Z,16.64
2023-04-15T16:53:32.317Z,16.61
2023-04-15T16:56:22.201Z,16.54
2023-04-15T16:59:11.429Z,16.51
2023-04-15T17:02:02.570Z,16.37
2023-04-15T17:04:51.873Z,16.37
2023-04-15T17:07:42.629Z,16.34
2023-04-15T17:10:32.736Z,16.12
2023-04-15T17:13:22.150Z,16.08
2023-04-15T17:16:11.787Z,16.04
2023-04-15T17:19:05.530Z,15.97
2023-04-15T17:22:03.158Z,15.84
2023-04-15T17:24:54.845Z,15.68
2023-04-15T17:27:45.032Z,15.61
2023-04-15T17:30:39.567Z,15.56
2023-04-15T17:33:58.881Z,15.51
2023-04-15T17:37:18.827Z,15.46
2023-04-15T17:40:29.426Z,15.43
2023-04-15T17:43:39.041Z,15.45
2023-04-15T17:46:48.527Z,15.46
2023-04-15T17:49:57.716Z,15.48
2023-04-15T17:53:06.983Z,15.42
2023-04-15T17:56:17.517Z,15.43
2023-04-15T17:59:26.810Z,15.47
2023-04-15T18:02:37.429Z,15.36
2023-04-15T18:05:46.972Z,15.51
2023-04-15T18:08:56.341Z,15.51
2023-04-15T18:12:09.047Z,15.57
2023-04-15T18:15:18.733Z,15.62
2023-04-15T18:18:29.242Z,15.65
2023-04-15T18:21:22.656Z,15.63
2023-04-15T18:24:11.909Z,15.69
2023-04-15T18:27:01.756Z,15.57
2023-04-15T18:29:52.692Z,15.51
2023-04-15T18:32:43.088Z,15.45
2023-04-15T18:35:32.382Z,15.33
2023-04-15T18:38:21.740Z,15.25
2023-04-15T18:41:11.180Z,15.14
2023-04-15T18:44:00.395Z,14.94
2023-04-15T18:46:51.777Z,14.79
2023-04-15T18:49:41.797Z,14.65
2023-04-15T18:52:33.971Z,14.49
2023-04-15T18:55:24.152Z,14.42
2023-04-15T18:58:14.067Z,14.35
2023-04-15T19:01:03.375Z,14.32
2023-04-15T19:03:54.043Z,14.24
2023-04-15T19:06:43.375Z,14.20
2023-04-15T19:09:32.894Z,14.06
2023-04-15T19:12:22.130Z,13.87
2023-04-15T19:15:12.232Z,13.77
2023-04-15T19:18:01.858Z,13.64
2023-04-15T19:20:52.916Z,13.58
2023-04-15T19:23:43.913Z,13.48
2023-04-15T19:26:33.135Z,13.43
2023-04-15T19:29:23.023Z,13.41
2023-04-15T19:32:14.113Z,13.35
2023-04-15T19:35:03.401Z,13.33
2023-04-15T19:37:54.088Z,13.26
2023-04-15T19:40:43.326Z,13.09
2023-04-15T19:43:33.702Z,12.96
2023-04-15T19:46:23.064Z,12.89
2023-04-15T19:49:12.423Z,12.67
2023-04-15T19:52:01.927Z,12.53
2023-04-15T19:54:52.560Z,12.35
2023-04-15T19:57:41.862Z,12.25
2023-04-15T20:00:31.760Z,12.18
2023-04-15T20:03:21.162Z,12.10
2023-04-15T20:06:10.887Z,12.05
2023-04-15T20:09:00.233Z,12.03
2023-04-15T20:12:06.100Z,12.08
2023-04-15T20:15:00.310Z,12.12
2023-04-15T20:17:49.647Z,12.18
2023-04-15T20:20:41.444Z,12.15
2023-04-15T20:23:30.671Z,12.17
2023-04-15T20:26:20.797Z,12.09
2023-04-15T20:29:11.573Z,12.03
2023-04-15T20:32:00.814Z,12.01
2023-04-15T20:34:50.067Z,11.89
2023-04-15T20:37:40.533Z,11.82
2023-04-15T20:40:30.049Z,11.83
2023-04-15T20:43:19.330Z,11.85
2023-04-15T20:46:20.190Z,11.83
2023-04-15T20:49:10.554Z,11.81
2023-04-15T20:51:59.819Z,11.88
2023-04-15T20:54:49.035Z,11.88
2023-04-15T20:57:38.328Z,11.88
2023-04-15T21:00:27.676Z,11.95
2023-04-15T21:03:18.449Z,11.94
2023-04-15T21:06:07.786Z,11.99
2023-04-15T21:08:57.036Z,11.87
2023-04-15T21:12:00.620Z,11.86
2023-04-15T21:14:51.975Z,11.82
2023-04-15T21:17:41.798Z,11.88
2023-04-15T21:20:33.003Z,11.84
2023-04-15T21:23:22.306Z,11.82
2023-04-15T21:26:11.579Z,11.86
2023-04-15T21:29:00.966Z,11.94
2023-04-15T21:31:50.538Z,12.05
2023-04-15T21:34:40.002Z,12.06
2023-04-15T21:37:30.817Z,12.13
2023-04-15T21:40:20.394Z,12.12
2023-04-15T21:43:09.692Z,12.15
2023-04-15T21:46:22.109Z,12.11
2023-04-15T21:49:08.593Z,12.11
2023-04-15T21:52:01.323Z,12.08
2023-04-15T21:54:52.070Z,12.13
2023-04-15T21:57:41.294Z,12.10
2023-04-15T22:00:30.627Z,12.09
2023-04-15T22:03:20.147Z,12.14
2023-04-15T22:06:09.718Z,12.19
2023-04-15T22:08:59.074Z,12.21
2023-04-15T22:11:49.946Z,12.23
2023-04-15T22:14:39.190Z,12.24
2023-04-15T22:17:28.844Z,12.25
2023-04-15T22:20:18.266Z,12.22
2023-04-15T22:23:09.881Z,12.26
2023-04-15T22:26:00.555Z,12.28
2023-04-15T22:28:51.546Z,12.30
2023-04-15T22:31:40.982Z,12.25
2023-04-15T22:34:30.285Z,12.20
2023-04-15T22:37:19.486Z,12.30
2023-04-15T22:40:10.444Z,12.26
2023-04-15T22:42:59.756Z,12.23
2023-04-15T22:45:53.205Z,12.23
2023-04-15T22:48:43.019Z,12.28
2023-04-15T22:51:32.996Z,12.29
2023-04-15T22:54:22.284Z,12.22
2023-04-15T22:57:11.529Z,12.25
2023-04-15T23:00:00.804Z,12.28
2023-04-15T23:02:51.596Z,12.30
2023-04-15T23:05:41.361Z,12.22
2023-04-15T23:08:30.800Z,12.15
2023-04-15T23:11:20.052Z,12.16
2023-04-15T23:14:10.329Z,12.17
2023-04-15T23:17:00.486Z,12.13
2023-04-15T23:19:51.834Z,12.22
2023-04-15T23:22:42.102Z,12.28
2023-04-15T23:25:31.360Z,12.33
2023-04-15T23:28:20.987Z,12.38
2023-04-15T23:31:10.235Z,12.31
2023-04-15T23:33:59.623Z,12.25
2023-04-15T23:36:50.288Z,12.40
2023-04-15T23:39:39.528Z,12.42
2023-04-15T23:42:28.897Z,12.43
2023-04-15T23:45:19.398Z,12.49
2023-04-15T23:48:09.149Z,12.44
2023-04-15T23:50:58.507Z,12.44
2023-04-15T23:53:50.157Z,12.45
2023-04-15T23:56:39.416Z,12.31
2023-04-15T23:59:28.679Z,12.37
